createdAt,value
2023-05-03T00:02:25.489Z,101276.03
2023-05-03T00:04:53.803Z,101277.75
2023-05-03T00:07:22.368Z,101277.72
2023-05-03T00:09:50.204Z,101269.97
2023-05-03T00:12:17.340Z,101281.16
2023-05-03T00:14:46.410Z,101277.66
2023-05-03T00:17:13.611Z,101289.75
2023-05-03T00:19:40.748Z,101291.50
2023-05-03T00:22:09.082Z,101283.69
2023-05-03T00:24:36.332Z,101281.06
2023-05-03T00:27:04.735Z,101290.53
2023-05-03T00:29:31.821Z,101291.38
2023-05-03T00:32:00.426Z,101293.03
2023-05-03T00:34:27.844Z,101287.78
2023-05-03T00:36:54.942Z,101286.03
2023-05-03T00:39:22.062Z,101287.69
2023-05-03T00:41:49.135Z,101291.09
2023-05-03T00:44:16.357Z,101294.53
2023-05-03T00:46:43.446Z,101299.66
2023-05-03T00:49:10.811Z,101294.38
2023-05-03T00:51:37.910Z,101294.28
2023-05-03T00:54:05.319Z,101293.31
2023-05-03T00:56:44.056Z,101288.97
2023-05-03T00:59:18.999Z,101292.38
2023-05-03T01:01:51.319Z,101297.41
2023-05-03T01:04:20.314Z,101292.19
2023-05-03T01:06:55.830Z,101286.94
2023-05-03T01:09:37.728Z,101290.22
2023-05-03T01:12:34.782Z,101291.78
2023-05-03T01:15:33.418Z,101298.53
2023-05-03T01:18:12.622Z,101296.75
2023-05-03T01:20:44.214Z,101296.63
2023-05-03T01:23:18.919Z,101289.63
2023-05-03T01:25:45.932Z,101292.09
2023-05-03T01:28:13.086Z,101299.75
2023-05-03T01:30:41.288Z,101291.91
2023-05-03T01:33:17.149Z,101297.88
2023-05-03T01:36:05.379Z,101301.28
2023-05-03T01:38:36.738Z,101308.00
2023-05-03T01:41:09.285Z,101302.72
2023-05-03T01:43:37.520Z,101307.81
2023-05-03T01:46:04.865Z,101312.13
2023-05-03T01:48:31.961Z,101311.22
2023-05-03T01:50:59.091Z,101308.47
2023-05-03T01:53:26.211Z,101294.56
2023-05-03T01:55:53.295Z,101309.19
2023-05-03T01:58:20.889Z,101307.34
2023-05-03T02:00:48.148Z,101307.22
2023-05-03T02:03:15.247Z,101311.41
2023-05-03T02:05:42.660Z,101307.03
2023-05-03T02:08:09.768Z,101306.06
2023-05-03T02:10:36.925Z,101304.31
2023-05-03T02:13:04.264Z,101305.13
2023-05-03T02:15:32.246Z,101313.66
2023-05-03T02:18:02.701Z,101311.03
2023-05-03T02:20:35.519Z,101320.38
2023-05-03T02:23:02.741Z,101308.19
2023-05-03T02:25:30.113Z,101308.19
2023-05-03T02:27:57.170Z,101314.16
2023-05-03T02:30:24.961Z,101310.63
2023-05-03T02:32:52.149Z,101314.91
2023-05-03T02:35:20.692Z,101302.88
2023-05-03T02:37:48.199Z,101304.50
2023-05-03T02:40:16.358Z,101309.53
2023-05-03T02:42:45.749Z,101300.81
2023-05-03T02:45:15.687Z,101311.97
2023-05-03T02:47:42.753Z,101320.50
2023-05-03T02:50:10.116Z,101308.38
2023-05-03T02:52:39.775Z,101317.75
2023-05-03T02:55:07.105Z,101324.56
2023-05-03T02:57:34.772Z,101319.28
2023-05-03T03:00:05.152Z,101327.69
2023-05-03T03:02:33.206Z,101327.63
2023-05-03T03:05:00.792Z,101329.25
2023-05-03T03:07:28.677Z,101334.31
2023-05-03T03:09:57.621Z,101330.84
2023-05-03T03:12:26.407Z,101333.41
2023-05-03T03:14:54.721Z,101336.03
2023-05-03T03:17:21.953Z,101336.03
2023-05-03T03:19:49.092Z,101339.47
2023-05-03T03:22:16.585Z,101339.47
2023-05-03T03:24:45.401Z,101350.72
2023-05-03T03:27:12.970Z,101349.84
2023-05-03T03:29:40.312Z,101358.44
2023-05-03T03:32:10.923Z,101348.16
2023-05-03T03:34:37.969Z,101355.16
2023-05-03T03:37:05.853Z,101356.84
2023-05-03T03:39:33.406Z,101354.22
2023-05-03T03:42:03.128Z,101355.97
2023-05-03T03:44:30.728Z,101351.72
2023-05-03T03:46:57.976Z,101364.66
2023-05-03T03:49:25.521Z,101360.47
2023-05-03T03:51:52.672Z,101360.59
2023-05-03T03:54:19.825Z,101355.44
2023-05-03T03:56:49.723Z,101357.38
2023-05-03T03:59:17.241Z,101366.94
2023-05-03T04:01:45.266Z,101357.81
2023-05-03T04:04:12.522Z,101370.16
2023-05-03T04:06:39.689Z,101373.81
2023-05-03T04:09:10.738Z,101368.88
2023-05-03T04:11:38.591Z,101375.94
2023-05-03T04:14:06.121Z,101376.00
2023-05-03T04:16:33.671Z,101383.06
2023-05-03T04:19:03.104Z,101383.09
2023-05-03T04:21:32.510Z,101378.03
2023-05-03T04:24:00.791Z,101393.78
2023-05-03T04:26:32.123Z,101387.03
2023-05-03T04:29:10.194Z,101388.81
2023-05-03T04:31:39.094Z,101390.69
2023-05-03T04:34:06.684Z,101382.09
2023-05-03T04:36:34.631Z,101399.47
2023-05-03T04:39:02.012Z,101399.53
2023-05-03T04:41:29.196Z,101408.31
2023-05-03T04:43:56.763Z,101405.78
2023-05-03T04:46:24.027Z,101398.13
2023-05-03T04:48:51.809Z,101399.84
2023-05-03T04:51:19.642Z,101412.03
2023-05-03T04:53:47.730Z,101407.75
2023-05-03T04:56:20.636Z,101404.31
2023-05-03T04:58:47.687Z,101419.06
2023-05-03T05:01:16.684Z,101413.91
2023-05-03T05:03:44.067Z,101409.56
2023-05-03T05:06:17.545Z,101417.41
2023-05-03T05:08:45.553Z,101414.00
2023-05-03T05:11:15.059Z,101417.44
2023-05-03T05:13:42.523Z,101415.72
2023-05-03T05:16:09.779Z,101424.47
2023-05-03T05:18:39.449Z,101433.28
2023-05-03T05:21:08.849Z,101432.56
2023-05-03T05:23:37.762Z,101426.59
2023-05-03T05:26:05.480Z,101430.13
2023-05-03T05:28:33.275Z,101434.50
2023-05-03T05:31:01.184Z,101436.25
2023-05-03T05:33:29.211Z,101443.25
2023-05-03T05:35:57.290Z,101440.69
2023-05-03T05:38:24.566Z,101448.47
2023-05-03T05:40:55.974Z,101444.16
2023-05-03T05:43:23.435Z,101449.34
2023-05-03T05:45:50.680Z,101436.34
2023-05-03T05:48:18.432Z,101449.38
2023-05-03T05:50:46.257Z,101457.22
2023-05-03T05:53:14.965Z,101453.88
2023-05-03T05:55:48.807Z,101447.84
2023-05-03T05:58:16.351Z,101454.88
2023-05-03T06:00:49.583Z,101456.69
2023-05-03T06:03:17.814Z,101455.03
2023-05-03T06:05:47.118Z,101463.75
2023-05-03T06:08:14.277Z,101469.00
2023-05-03T06:10:41.647Z,101463.91
2023-05-03T06:13:09.925Z,101466.69
2023-05-03T06:15:37.373Z,101476.31
2023-05-03T06:18:04.879Z,101469.53
2023-05-03T06:20:32.291Z,101473.94
2023-05-03T06:23:02.173Z,101476.69
2023-05-03T06:25:29.304Z,101469.84
2023-05-03T06:27:57.369Z,101482.03
2023-05-03T06:30:28.767Z,101471.72
2023-05-03T06:33:02.092Z,101476.94
2023-05-03T06:35:29.653Z,101470.91
2023-05-03T06:37:56.734Z,101470.09
2023-05-03T06:40:26.092Z,101470.09
2023-05-03T06:42:53.217Z,101471.03
2023-05-03T06:45:31.862Z,101470.16
2023-05-03T06:47:59.419Z,101480.53
2023-05-03T06:50:27.028Z,101477.06
2023-05-03T06:52:54.883Z,101475.34
2023-05-03T06:55:21.944Z,101471.88
2023-05-03T06:57:49.373Z,101477.91
2023-05-03T07:00:17.160Z,101468.34
2023-05-03T07:02:44.659Z,101476.09
2023-05-03T07:05:12.065Z,101483.84
2023-05-03T07:07:39.290Z,101473.38
2023-05-03T07:10:07.442Z,101478.56
2023-05-03T07:12:34.595Z,101488.88
2023-05-03T07:15:01.712Z,101476.63
2023-05-03T07:17:28.918Z,101480.06
2023-05-03T07:19:57.498Z,101478.28
2023-05-03T07:22:28.167Z,101479.13
2023-05-03T07:24:55.960Z,101481.63
2023-05-03T07:27:23.102Z,101472.88
2023-05-03T07:29:50.216Z,101478.84
2023-05-03T07:32:17.384Z,101480.50
2023-05-03T07:34:44.682Z,101483.03
2023-05-03T07:37:12.224Z,101483.75
2023-05-03T07:39:39.838Z,101482.78
2023-05-03T07:42:07.815Z,101475.72
2023-05-03T07:44:34.908Z,101487.81
2023-05-03T07:47:01.996Z,101486.84
2023-05-03T07:49:29.155Z,101485.97
2023-05-03T07:51:56.558Z,101484.28
2023-05-03T07:54:23.751Z,101486.72
2023-05-03T07:56:52.108Z,101470.81
2023-05-03T07:59:20.408Z,101483.13
2023-05-03T08:01:47.543Z,101481.69
2023-05-03T08:04:14.887Z,101489.53
2023-05-03T08:06:43.244Z,101480.19
2023-05-03T08:09:11.781Z,101495.13
2023-05-03T08:11:39.501Z,101481.88
2023-05-03T08:14:07.718Z,101482.53
2023-05-03T08:16:34.849Z,101487.50
2023-05-03T08:19:02.100Z,101482.53
2023-05-03T08:21:30.512Z,101490.78
2023-05-03T08:23:57.840Z,101488.53
2023-05-03T08:26:28.738Z,101485.84
2023-05-03T08:28:56.426Z,101490.81
2023-05-03T08:31:23.744Z,101481.38
2023-05-03T08:33:51.066Z,101483.34
2023-05-03T08:36:18.545Z,101487.91
2023-05-03T08:38:46.262Z,101488.97
2023-05-03T08:41:32.265Z,101496.63
2023-05-03T08:44:01.168Z,101491.91
2023-05-03T08:46:29.148Z,101494.09
2023-05-03T08:48:56.783Z,101492.84
2023-05-03T08:51:25.311Z,101490.66
2023-05-03T08:53:52.810Z,101492.31
2023-05-03T08:56:41.762Z,101493.75
2023-05-03T08:59:09.479Z,101498.28
2023-05-03T09:01:37.742Z,101488.59
2023-05-03T09:04:06.030Z,101494.25
2023-05-03T09:06:34.625Z,101491.25
2023-05-03T09:09:05.462Z,101486.50
2023-05-03T09:11:34.301Z,101488.06
2023-05-03T09:14:11.577Z,101491.41
2023-05-03T09:16:40.661Z,101491.47
2023-05-03T09:19:09.857Z,101493.28
2023-05-03T09:21:37.617Z,101491.41
2023-05-03T09:24:24.976Z,101491.00
2023-05-03T09:26:53.304Z,101483.94
2023-05-03T09:29:36.229Z,101493.41
2023-05-03T09:32:06.126Z,101486.91
2023-05-03T09:34:34.126Z,101484.00
2023-05-03T09:37:01.675Z,101491.16
2023-05-03T09:39:28.936Z,101482.19
2023-05-03T09:41:56.488Z,101484.28
2023-05-03T09:44:42.204Z,101485.94
2023-05-03T09:47:10.288Z,101480.22
2023-05-03T09:49:38.479Z,101481.44
2023-05-03T09:52:07.255Z,101477.78
2023-05-03T09:54:38.059Z,101478.19
2023-05-03T09:57:06.746Z,101483.16
2023-05-03T09:59:35.372Z,101477.75
2023-05-03T10:02:07.938Z,101480.16
2023-05-03T10:04:48.440Z,101476.22
2023-05-03T10:07:18.826Z,101470.59
2023-05-03T10:09:47.042Z,101472.00
2023-05-03T10:12:17.553Z,101471.94
2023-05-03T10:14:47.844Z,101465.22
2023-05-03T10:17:47.709Z,101463.16
2023-05-03T10:20:36.887Z,101468.00
2023-05-03T10:23:11.880Z,101469.63
2023-05-03T10:25:41.393Z,101464.44
2023-05-03T10:28:09.928Z,101470.63
2023-05-03T10:30:39.455Z,101474.78
2023-05-03T10:33:12.431Z,101463.25
2023-05-03T10:35:42.629Z,101462.16
2023-05-03T10:38:22.153Z,101461.13
2023-05-03T10:40:49.744Z,101458.25
2023-05-03T10:43:34.811Z,101464.63
2023-05-03T10:46:29.568Z,101465.88
2023-05-03T10:49:26.701Z,101460.00
2023-05-03T10:51:54.005Z,101462.72
2023-05-03T10:54:21.428Z,101463.38
2023-05-03T10:56:53.409Z,101460.59
2023-05-03T10:59:22.206Z,101463.81
2023-05-03T11:01:54.113Z,101463.59
2023-05-03T11:04:34.154Z,101460.00
2023-05-03T11:07:01.967Z,101465.28
2023-05-03T11:09:34.641Z,101464.75
2023-05-03T11:12:06.699Z,101461.28
2023-05-03T11:14:33.858Z,101460.22
2023-05-03T11:17:02.218Z,101452.91
2023-05-03T11:19:29.816Z,101466.09
2023-05-03T11:21:58.486Z,101458.69
2023-05-03T11:24:25.794Z,101459.00
2023-05-03T11:26:53.090Z,101455.47
2023-05-03T11:29:21.823Z,101460.28
2023-05-03T11:31:49.154Z,101460.06
2023-05-03T11:34:16.402Z,101466.97
2023-05-03T11:36:43.879Z,101458.56
2023-05-03T11:39:16.453Z,101466.16
2023-05-03T11:41:44.277Z,101465.94
2023-05-03T11:44:17.234Z,101467.63
2023-05-03T11:46:47.759Z,101464.00
2023-05-03T11:49:19.753Z,101461.06
2023-05-03T11:51:51.599Z,101454.78
2023-05-03T11:54:26.253Z,101460.56
2023-05-03T11:56:59.623Z,101468.31
2023-05-03T11:59:40.642Z,101457.63
2023-05-03T12:02:10.540Z,101456.59
2023-05-03T12:04:45.535Z,101459.22
2023-05-03T12:07:15.855Z,101466.22
2023-05-03T12:09:52.811Z,101457.94
2023-05-03T12:12:31.495Z,101462.22
2023-05-03T12:15:03.552Z,101471.78
2023-05-03T12:17:37.025Z,101463.09
2023-05-03T12:22:57.720Z,101456.66
2023-05-03T12:25:28.323Z,101456.16
2023-05-03T12:30:33.834Z,101460.00
2023-05-03T12:33:04.326Z,101456.69
2023-05-03T12:35:34.213Z,101450.69
2023-05-03T12:38:04.582Z,101452.31
2023-05-03T12:40:34.844Z,101443.50
2023-05-03T12:43:02.339Z,101456.22
2023-05-03T12:45:34.395Z,101456.84
2023-05-03T12:48:03.108Z,101455.66
2023-05-03T12:50:32.078Z,101456.16
2023-05-03T12:53:02.623Z,101463.47
2023-05-03T12:55:35.188Z,101462.91
2023-05-03T12:58:36.848Z,101464.03
2023-05-03T13:01:26.904Z,101457.34
2023-05-03T13:03:43.483Z,101453.19
2023-05-03T13:06:13.987Z,101453.16
2023-05-03T13:11:13.299Z,101451.84
2023-05-03T13:13:40.986Z,101441.16
2023-05-03T13:16:09.447Z,101446.13
2023-05-03T13:18:36.703Z,101440.47
2023-05-03T13:21:04.152Z,101438.28
2023-05-03T13:23:31.381Z,101434.84
2023-05-03T13:25:59.485Z,101435.69
2023-05-03T13:28:27.452Z,101426.03
2023-05-03T13:30:54.822Z,101434.50
2023-05-03T13:33:22.481Z,101432.69
2023-05-03T13:35:49.769Z,101427.75
2023-05-03T13:38:16.933Z,101421.84
2023-05-03T13:40:44.133Z,101429.66
2023-05-03T13:43:11.426Z,101433.47
2023-05-03T13:45:38.636Z,101435.66
2023-05-03T13:48:17.113Z,101430.69
2023-05-03T13:50:46.162Z,101434.25
2023-05-03T13:53:13.341Z,101435.94
2023-05-03T13:55:40.724Z,101437.66
2023-05-03T13:58:08.824Z,101441.09
2023-05-03T14:00:36.316Z,101442.97
2023-05-03T14:03:04.751Z,101434.50
2023-05-03T14:05:32.182Z,101429.44
2023-05-03T14:07:59.782Z,101440.88
2023-05-03T14:10:27.837Z,101433.16
2023-05-03T14:12:55.136Z,101432.41
2023-05-03T14:15:22.401Z,101425.56
2023-05-03T14:17:49.849Z,101426.44
2023-05-03T14:20:20.172Z,101421.09
2023-05-03T14:22:47.264Z,101421.75
2023-05-03T14:25:14.360Z,101427.63
2023-05-03T14:27:41.889Z,101422.41
2023-05-03T14:30:10.660Z,101420.81
2023-05-03T14:32:37.796Z,101424.38
2023-05-03T14:35:05.745Z,101410.72
2023-05-03T14:37:33.799Z,101420.25
2023-05-03T14:40:01.113Z,101422.81
2023-05-03T14:42:32.330Z,101427.94
2023-05-03T14:45:00.603Z,101420.91
2023-05-03T14:47:27.921Z,101431.38
2023-05-03T14:49:56.433Z,101440.19
2023-05-03T14:52:23.503Z,101441.19
2023-05-03T14:54:50.659Z,101446.56
2023-05-03T14:57:17.935Z,101432.78
2023-05-03T14:59:45.906Z,101445.84
2023-05-03T15:02:13.088Z,101447.63
2023-05-03T15:04:40.544Z,101442.50
2023-05-03T15:07:09.386Z,101446.94
2023-05-03T15:09:38.162Z,101449.56
2023-05-03T15:12:05.603Z,101443.56
2023-05-03T15:14:32.776Z,101444.44
2023-05-03T15:17:00.404Z,101435.78
2023-05-03T15:19:28.522Z,101434.91
2023-05-03T15:21:55.802Z,101439.16
2023-05-03T15:24:23.216Z,101431.28
2023-05-03T15:26:51.771Z,101437.31
2023-05-03T15:29:19.011Z,101430.38
2023-05-03T15:31:46.628Z,101431.31
2023-05-03T15:34:14.239Z,101430.53
2023-05-03T15:36:41.476Z,101435.72
2023-05-03T15:39:09.572Z,101430.41
2023-05-03T15:41:36.889Z,101432.16
2023-05-03T15:44:05.635Z,101426.84
2023-05-03T15:46:34.488Z,101428.56
2023-05-03T15:49:02.019Z,101426.91
2023-05-03T15:51:29.657Z,101428.59
2023-05-03T15:53:56.810Z,101428.66
2023-05-03T15:56:24.449Z,101435.63
2023-05-03T15:58:52.058Z,101440.88
2023-05-03T16:01:19.411Z,101429.56
2023-05-03T16:03:48.144Z,101426.97
2023-05-03T16:06:18.707Z,101421.63
2023-05-03T16:08:46.186Z,101421.53
2023-05-03T16:11:13.542Z,101430.13
2023-05-03T16:13:41.044Z,101416.22
2023-05-03T16:16:08.296Z,101421.50
2023-05-03T16:18:35.527Z,101426.81
2023-05-03T16:21:03.110Z,101427.78
2023-05-03T16:23:30.385Z,101421.72
2023-05-03T16:25:57.699Z,101425.25
2023-05-03T16:28:25.057Z,101427.06
2023-05-03T16:30:52.217Z,101422.78
2023-05-03T16:33:19.653Z,101433.25
2023-05-03T16:35:46.700Z,101431.56
2023-05-03T16:38:13.825Z,101420.34
2023-05-03T16:40:42.569Z,101425.59
2023-05-03T16:43:10.439Z,101424.78
2023-05-03T16:45:37.903Z,101424.88
2023-05-03T16:48:07.387Z,101410.25
2023-05-03T16:50:37.309Z,101418.91
2023-05-03T16:53:04.526Z,101419.88
2023-05-03T16:55:31.930Z,101420.78
2023-05-03T16:58:00.105Z,101419.06
2023-05-03T17:00:27.735Z,101431.25
2023-05-03T17:02:54.999Z,101428.66
2023-05-03T17:05:22.780Z,101426.09
2023-05-03T17:07:49.862Z,101419.13
2023-05-03T17:10:17.124Z,101418.28
2023-05-03T17:12:47.495Z,101420.88
2023-05-03T17:15:14.706Z,101422.69
2023-05-03T17:17:41.869Z,101429.69
2023-05-03T17:20:11.087Z,101430.56
2023-05-03T17:22:38.293Z,101423.66
2023-05-03T17:25:06.716Z,101422.84
2023-05-03T17:27:33.897Z,101422.88
2023-05-03T17:30:01.120Z,101427.28
2023-05-03T17:32:28.282Z,101423.00
2023-05-03T17:34:56.952Z,101419.59
2023-05-03T17:37:24.995Z,101426.53
2023-05-03T17:39:52.274Z,101433.50
2023-05-03T17:42:19.410Z,101426.56
2023-05-03T17:44:46.851Z,101433.53
2023-05-03T17:47:13.962Z,101433.56
2023-05-03T17:49:41.291Z,101431.00
2023-05-03T17:52:08.437Z,101428.44
2023-05-03T17:54:35.766Z,101430.19
2023-05-03T17:57:03.533Z,101438.03
2023-05-03T17:59:30.735Z,101428.50
2023-05-03T18:01:57.938Z,101434.53
2023-05-03T18:04:27.036Z,101438.94
2023-05-03T18:06:54.305Z,101437.19
2023-05-03T18:09:21.452Z,101438.94
2023-05-03T18:11:49.525Z,101441.56
2023-05-03T18:14:16.679Z,101436.38
2023-05-03T18:16:43.920Z,101429.44
2023-05-03T18:19:12.737Z,101438.97
2023-05-03T18:21:40.038Z,101437.25
2023-05-03T18:24:07.543Z,101438.97
2023-05-03T18:26:34.659Z,101441.56
2023-05-03T18:29:01.773Z,101440.72
2023-05-03T18:31:29.091Z,101437.25
2023-05-03T18:33:56.248Z,101438.13
2023-05-03T18:36:24.124Z,101438.13
2023-05-03T18:38:53.871Z,101438.13
2023-05-03T18:41:21.069Z,101440.72
2023-05-03T18:43:48.274Z,101438.09
2023-05-03T18:46:19.795Z,101428.59
2023-05-03T18:48:48.035Z,101444.19
2023-05-03T18:51:15.294Z,101447.63
2023-05-03T18:53:43.664Z,101447.63
2023-05-03T18:56:11.067Z,101449.34
2023-05-03T18:58:38.479Z,101445.00
2023-05-03T19:01:06.065Z,101445.88
2023-05-03T19:03:33.736Z,101445.88
2023-05-03T19:06:07.470Z,101451.06
2023-05-03T19:08:35.755Z,101456.19
2023-05-03T19:11:10.357Z,101456.19
2023-05-03T19:13:37.986Z,101449.22
2023-05-03T19:16:05.456Z,101459.59
2023-05-03T19:18:32.749Z,101461.31
2023-05-03T19:20:59.861Z,101454.38
2023-05-03T19:23:27.501Z,101459.50
2023-05-03T19:25:54.569Z,101461.19
2023-05-03T19:28:21.746Z,101454.22
2023-05-03T19:30:51.964Z,101454.19
2023-05-03T19:33:20.425Z,101461.94
2023-05-03T19:35:48.154Z,101467.94
2023-05-03T19:38:16.054Z,101465.34
2023-05-03T19:40:55.890Z,101449.72
2023-05-03T19:43:23.131Z,101457.50
2023-05-03T19:45:50.495Z,101455.75
2023-05-03T19:48:18.420Z,101458.34
2023-05-03T19:50:45.661Z,101450.53
2023-05-03T19:53:38.476Z,101457.41
2023-05-03T19:56:07.202Z,101459.09
2023-05-03T19:58:34.254Z,101452.16
2023-05-03T20:01:01.818Z,101461.63
2023-05-03T20:03:29.075Z,101451.22
2023-05-03T20:05:56.654Z,101448.56
2023-05-03T20:08:24.461Z,101461.50
2023-05-03T20:10:51.758Z,101458.00
2023-05-03T20:13:19.162Z,101462.31
2023-05-03T20:15:47.131Z,101470.84
2023-05-03T20:18:14.296Z,101467.31
2023-05-03T20:20:41.456Z,101455.22
2023-05-03T20:23:08.573Z,101461.31
2023-05-03T20:25:35.781Z,101451.84
2023-05-03T20:28:03.201Z,101465.69
2023-05-03T20:30:31.893Z,101462.22
2023-05-03T20:32:59.263Z,101462.19
2023-05-03T20:35:26.840Z,101456.97
2023-05-03T20:37:53.945Z,101450.03
2023-05-03T20:40:21.405Z,101458.69
2023-05-03T20:42:48.476Z,101455.19
2023-05-03T20:45:15.766Z,101469.81
2023-05-03T20:47:43.056Z,101461.97
2023-05-03T20:50:10.578Z,101460.16
2023-05-03T20:52:38.041Z,101456.63
2023-05-03T20:55:05.356Z,101458.38
2023-05-03T20:57:32.480Z,101456.56
2023-05-03T21:00:00.274Z,101468.56
2023-05-03T21:02:27.441Z,101465.03
2023-05-03T21:04:54.521Z,101466.75
2023-05-03T21:07:21.560Z,101466.66
2023-05-03T21:09:48.615Z,101466.59
2023-05-03T21:12:15.858Z,101452.69
2023-05-03T21:14:42.983Z,101462.09
2023-05-03T21:17:12.384Z,101454.19
2023-05-03T21:19:40.091Z,101457.66
2023-05-03T21:22:11.732Z,101454.19
2023-05-03T21:24:38.778Z,101457.66
2023-05-03T21:27:05.831Z,101453.38
2023-05-03T21:29:33.013Z,101453.31
2023-05-03T21:32:00.246Z,101457.56
2023-05-03T21:34:27.503Z,101455.81
2023-05-03T21:36:54.590Z,101443.69
2023-05-03T21:39:21.851Z,101452.34
2023-05-03T21:41:48.950Z,101454.88
2023-05-03T21:44:15.976Z,101462.53
2023-05-03T21:46:43.391Z,101453.88
2023-05-03T21:49:10.481Z,101459.88
2023-05-03T21:51:37.623Z,101458.97
2023-05-03T21:54:04.903Z,101456.34
2023-05-03T21:56:32.076Z,101450.28
2023-05-03T21:58:59.197Z,101462.41
2023-05-03T22:01:26.386Z,101453.81
2023-05-03T22:03:53.900Z,101460.69
2023-05-03T22:06:21.925Z,101456.34
2023-05-03T22:08:49.384Z,101450.19
2023-05-03T22:11:16.500Z,101457.06
2023-05-03T22:13:58.778Z,101461.28
2023-05-03T22:16:30.676Z,101460.41
2023-05-03T22:18:58.541Z,101458.59
2023-05-03T22:21:25.656Z,101458.59
2023-05-03T22:23:52.948Z,101456.88
2023-05-03T22:26:20.088Z,101456.88
2023-05-03T22:28:47.115Z,101455.97
2023-05-03T22:31:14.221Z,101456.75
2023-05-03T22:33:44.928Z,101456.63
2023-05-03T22:36:12.576Z,101461.84
2023-05-03T22:38:42.050Z,101474.78
2023-05-03T22:41:11.389Z,101475.59
2023-05-03T22:43:38.545Z,101473.91
2023-05-03T22:46:06.168Z,101473.97
2023-05-03T22:48:34.234Z,101469.66
2023-05-03T22:51:01.375Z,101473.94
2023-05-03T22:53:28.597Z,101473.06
2023-05-03T22:56:00.961Z,101479.00
2023-05-03T22:58:28.813Z,101472.91
2023-05-03T23:00:56.782Z,101473.66
2023-05-03T23:03:24.152Z,101475.38
2023-05-03T23:05:55.040Z,101476.25
2023-05-03T23:08:22.484Z,101466.72
2023-05-03T23:10:49.572Z,101476.28
2023-05-03T23:13:16.983Z,101474.53
2023-05-03T23:15:44.325Z,101471.94
2023-05-03T23:18:11.382Z,101473.63
2023-05-03T23:20:38.612Z,101467.47
2023-05-03T23:23:05.682Z,101473.41
2023-05-03T23:25:32.777Z,101469.00
2023-05-03T23:27:59.902Z,101453.38
2023-05-03T23:30:28.270Z,101455.91
2023-05-03T23:32:55.923Z,101462.97
2023-05-03T23:35:23.479Z,101463.06
2023-05-03T23:37:50.640Z,101454.56
2023-05-03T23:40:18.012Z,101451.91
2023-05-03T23:42:46.529Z,101455.25
2023-05-03T23:45:13.646Z,101450.84
2023-05-03T23:47:40.696Z,101451.59
2023-05-03T23:50:08.785Z,101450.59
2023-05-03T23:52:36.082Z,101443.59
2023-05-03T23:55:04.317Z,101445.06
2023-05-03T23:57:31.656Z,101451.75
2023-05-03T23:59:58.730Z,101458.47
